Time;durP1;ratioP1;P1;durP2;ratioP2;P2;SDS_P1;SDS_P2;PMS_P1;PMS_P2;Temp;Humidity;BMP_temperature;BMP_pressure;BME280_temperature;BME280_humidity;BME280_pressure;Samples;Min_cycle;Max_cycle;Signal;HPM_P1;HPM_P2
2023/04/05 00:00:42;;;;;;;4.93;2.73;;;;;;;;;;5050047;28;20204;-71
2023/04/05 00:03:09;;;;;;;3.83;2.70;;;;;;;;;;5048871;28;20199;-70
2023/04/05 00:05:35;;;;;;;3.90;2.97;;;;;;;;;;5041631;28;20195;-69
2023/04/05 00:08:03;;;;;;;3.23;2.60;;;;;;;;;;5046205;28;20215;-70
2023/04/05 00:10:31;;;;;;;3.70;2.80;;;;;;;;;;5046290;28;20204;-69
2023/04/05 00:12:57;;;;;;;4.67;3.13;;;;;;;;;;5047174;28;20214;-70
2023/04/05 00:15:24;;;;;;;3.90;2.93;;;;;;;;;;5048066;28;20211;-72
2023/04/05 00:17:52;;;;;;;3.77;2.80;;;;;;;;;;5048568;28;20234;-70
2023/04/05 00:20:19;;;;;;;3.13;2.50;;;;;;;;;;5046023;28;20672;-69
2023/04/05 00:22:49;;;;;;;3.33;2.60;;;;;;;;;;5046541;28;20203;-69
2023/04/05 00:25:15;;;;;;;3.13;2.70;;;;;;;;;;5046007;28;20209;-69
2023/04/05 00:27:44;;;;;;;3.80;2.57;;;;;;;;;;5048596;28;20493;-69
2023/04/05 00:30:10;;;;;;;4.33;2.50;;;;;;;;;;5046452;28;20810;-69
2023/04/05 00:32:37;;;;;;;5.37;2.97;;;;;;;;;;5044160;28;20473;-69
2023/04/05 00:35:03;;;;;;;3.50;2.80;;;;;;;;;;5034987;28;20199;-70
2023/04/05 00:37:30;;;;;;;5.60;2.80;;;;;;;;;;5048474;28;20608;-69
2023/04/05 00:39:58;;;;;;;3.00;2.70;;;;;;;;;;5045522;28;21135;-69
2023/04/05 00:42:24;;;;;;;4.80;2.63;;;;;;;;;;5032575;28;20298;-69
2023/04/05 00:44:52;;;;;;;4.73;2.83;;;;;;;;;;5030080;28;20269;-69
2023/04/05 00:47:18;;;;;;;2.83;2.50;;;;;;;;;;5031096;28;20496;-69
2023/04/05 00:49:44;;;;;;;4.70;3.17;;;;;;;;;;5032783;28;20202;-70
2023/04/05 00:52:11;;;;;;;6.43;2.93;;;;;;;;;;5049557;28;20488;-70
2023/04/05 00:54:38;;;;;;;4.03;2.80;;;;;;;;;;5039673;28;20467;-70
2023/04/05 00:57:04;;;;;;;4.43;3.10;;;;;;;;;;5031506;28;20909;-69
2023/04/05 00:59:31;;;;;;;4.70;2.87;;;;;;;;;;5029809;28;20454;-69
2023/04/05 01:02:00;;;;;;;3.37;3.00;;;;;;;;;;5048239;28;20954;-70
2023/04/05 01:04:30;;;;;;;6.50;3.40;;;;;;;;;;5043270;28;20467;-69
2023/04/05 01:07:04;;;;;;;4.43;2.77;;;;;;;;;;5027961;28;20826;-70
2023/04/05 01:09:37;;;;;;;4.23;3.00;;;;;;;;;;5045523;28;20552;-69
2023/04/05 01:12:06;;;;;;;3.77;2.93;;;;;;;;;;5030468;28;20448;-70
2023/04/05 01:14:43;;;;;;;6.17;3.23;;;;;;;;;;5052023;28;20684;-71
2023/04/05 01:17:11;;;;;;;3.90;2.97;;;;;;;;;;5044487;28;20482;-69
2023/04/05 01:19:40;;;;;;;5.27;2.83;;;;;;;;;;5028325;28;20459;-69
2023/04/05 01:22:14;;;;;;;3.23;2.93;;;;;;;;;;5051137;28;20453;-69
2023/04/05 01:24:49;;;;;;;4.77;3.33;;;;;;;;;;5043191;28;20803;-70
2023/04/05 01:27:18;;;;;;;6.43;3.33;;;;;;;;;;5037350;28;20636;-71
2023/04/05 01:29:50;;;;;;;3.87;3.00;;;;;;;;;;5056450;28;20522;-70
2023/04/05 01:32:21;;;;;;;4.63;3.30;;;;;;;;;;5050641;28;20452;-69
2023/04/05 01:34:51;;;;;;;5.80;3.27;;;;;;;;;;5057985;28;20456;-69
2023/04/05 01:37:18;;;;;;;5.97;3.03;;;;;;;;;;5049329;28;20563;-69
2023/04/05 01:39:46;;;;;;;5.07;2.90;;;;;;;;;;5053552;28;20588;-72
2023/04/05 01:42:12;;;;;;;5.63;3.23;;;;;;;;;;5036651;28;20464;-69
2023/04/05 01:44:39;;;;;;;6.23;3.20;;;;;;;;;;5039854;28;20450;-69
2023/04/05 01:47:07;;;;;;;6.50;3.50;;;;;;;;;;5037603;28;20491;-69
2023/04/05 01:49:33;;;;;;;6.27;3.60;;;;;;;;;;5055771;28;20454;-70
2023/04/05 01:51:59;;;;;;;7.07;3.47;;;;;;;;;;5051561;28;20473;-70
2023/04/05 01:54:26;;;;;;;6.47;3.43;;;;;;;;;;5050482;28;20926;-69
2023/04/05 01:56:53;;;;;;;4.93;3.03;;;;;;;;;;5030554;28;20489;-70
2023/04/05 01:59:19;;;;;;;3.53;3.17;;;;;;;;;;5039218;28;20455;-71
2023/04/05 02:01:46;;;;;;;11.00;3.60;;;;;;;;;;5052291;28;21055;-71
2023/04/05 02:04:13;;;;;;;3.80;3.07;;;;;;;;;;5055820;28;21147;-70
2023/04/05 02:06:40;;;;;;;5.13;3.77;;;;;;;;;;5033360;28;20471;-68
2023/04/05 02:09:06;;;;;;;7.73;4.13;;;;;;;;;;5042717;28;20464;-69
2023/04/05 02:11:32;;;;;;;5.90;4.20;;;;;;;;;;5050401;28;20450;-69
2023/04/05 02:13:59;;;;;;;8.03;3.80;;;;;;;;;;5045519;28;20987;-69
2023/04/05 02:16:25;;;;;;;5.53;3.53;;;;;;;;;;5049193;28;20547;-69
2023/04/05 02:18:56;;;;;;;5.27;3.40;;;;;;;;;;5033236;28;20541;-69
2023/04/05 02:21:24;;;;;;;4.37;3.23;;;;;;;;;;5030863;28;20463;-69
2023/04/05 02:23:51;;;;;;;6.17;3.60;;;;;;;;;;5030906;28;20542;-69
2023/04/05 02:26:17;;;;;;;4.67;3.33;;;;;;;;;;5051631;28;20497;-69
2023/04/05 02:28:43;;;;;;;7.60;3.53;;;;;;;;;;5032529;28;20480;-69
2023/04/05 02:31:10;;;;;;;4.50;3.40;;;;;;;;;;5050684;28;20458;-70
2023/04/05 02:33:37;;;;;;;4.80;3.50;;;;;;;;;;5049337;28;20979;-70
2023/04/05 02:36:04;;;;;;;4.17;3.63;;;;;;;;;;5037405;28;20486;-69
2023/04/05 02:38:31;;;;;;;4.97;3.20;;;;;;;;;;5039814;28;20471;-70
2023/04/05 02:40:59;;;;;;;7.50;4.10;;;;;;;;;;5050631;28;20470;-71
2023/04/05 02:43:25;;;;;;;7.23;3.83;;;;;;;;;;5033378;28;20536;-70
2023/04/05 02:45:52;;;;;;;6.23;3.27;;;;;;;;;;5057432;28;21051;-68
2023/04/05 02:48:19;;;;;;;6.57;3.87;;;;;;;;;;5032998;28;21050;-69
2023/04/05 02:50:47;;;;;;;6.83;3.23;;;;;;;;;;5041849;28;20449;-69
2023/04/05 02:53:13;;;;;;;5.10;3.50;;;;;;;;;;5031177;28;20473;-70
2023/04/05 02:55:41;;;;;;;7.53;3.57;;;;;;;;;;5036596;28;20486;-71
2023/04/05 02:58:08;;;;;;;5.30;3.83;;;;;;;;;;5039573;28;20471;-70
2023/04/05 03:00:40;;;;;;;6.47;3.70;;;;;;;;;;5038056;28;20463;-69
2023/04/05 03:03:08;;;;;;;4.63;3.67;;;;;;;;;;5029242;28;21044;-69
2023/04/05 03:05:40;;;;;;;5.90;3.83;;;;;;;;;;5047864;28;20846;-69
2023/04/05 03:08:08;;;;;;;8.03;3.83;;;;;;;;;;5033314;28;20488;-69
2023/04/05 03:10:37;;;;;;;8.57;4.03;;;;;;;;;;5035703;28;20859;-72
2023/04/05 03:13:13;;;;;;;5.63;3.83;;;;;;;;;;5033861;28;20470;-69
2023/04/05 03:15:41;;;;;;;4.53;3.20;;;;;;;;;;5030224;28;20455;-70
2023/04/05 03:18:11;;;;;;;4.77;3.77;;;;;;;;;;5032321;28;20482;-69
2023/04/05 03:20:44;;;;;;;4.83;3.57;;;;;;;;;;5050787;28;20554;-70
2023/04/05 03:23:17;;;;;;;3.37;3.00;;;;;;;;;;5046629;28;20520;-69
2023/04/05 03:25:45;;;;;;;5.00;3.50;;;;;;;;;;5032336;28;20456;-71
2023/04/05 03:28:14;;;;;;;5.00;3.50;;;;;;;;;;5034915;28;20827;-69
2023/04/05 03:30:44;;;;;;;8.00;3.40;;;;;;;;;;5030541;28;20864;-69
2023/04/05 03:33:17;;;;;;;3.97;2.77;;;;;;;;;;5037991;28;20903;-70
2023/04/05 03:35:47;;;;;;;5.73;3.30;;;;;;;;;;5027865;28;20545;-69
2023/04/05 03:38:15;;;;;;;4.43;3.17;;;;;;;;;;5051658;28;20467;-71
2023/04/05 03:40:49;;;;;;;6.90;3.83;;;;;;;;;;5028200;28;20493;-70
2023/04/05 03:43:17;;;;;;;4.80;3.50;;;;;;;;;;5024703;28;20486;-69
2023/04/05 03:45:43;;;;;;;4.73;3.43;;;;;;;;;;5037723;28;20487;-70
2023/04/05 03:48:10;;;;;;;5.50;3.70;;;;;;;;;;5045540;28;20478;-69
2023/04/05 03:50:36;;;;;;;6.20;3.73;;;;;;;;;;5029798;28;20458;-69
2023/04/05 03:53:03;;;;;;;4.23;2.90;;;;;;;;;;5046668;28;20463;-69
2023/04/05 03:55:29;;;;;;;6.73;3.43;;;;;;;;;;5053454;28;20470;-69
2023/04/05 03:58:00;;;;;;;3.97;3.23;;;;;;;;;;5033683;28;20503;-69
2023/04/05 04:00:34;;;;;;;7.03;3.70;;;;;;;;;;5030149;28;20503;-69
2023/04/05 04:03:17;;;;;;;5.63;3.57;;;;;;;;;;5030025;28;20916;-70
2023/04/05 04:05:46;;;;;;;4.40;3.43;;;;;;;;;;5045109;28;20500;-70
2023/04/05 04:08:13;;;;;;;4.97;3.50;;;;;;;;;;5036313;28;20568;-70
2023/04/05 04:10:39;;;;;;;4.10;3.30;;;;;;;;;;5030090;28;20542;-70
2023/04/05 04:13:18;;;;;;;8.30;3.40;;;;;;;;;;5026689;28;20472;-69
2023/04/05 04:15:46;;;;;;;10.67;3.50;;;;;;;;;;5042784;28;20746;-70
2023/04/05 04:18:34;;;;;;;5.47;3.47;;;;;;;;;;5049033;28;20483;-71
2023/04/05 04:21:31;;;;;;;4.63;3.40;;;;;;;;;;5039715;28;20486;-69
2023/04/05 04:24:17;;;;;;;4.83;3.47;;;;;;;;;;5030731;28;20539;-69
2023/04/05 04:26:59;;;;;;;6.00;3.57;;;;;;;;;;5023134;28;20483;-69
2023/04/05 04:30:00;;;;;;;8.83;3.87;;;;;;;;;;5037302;28;20970;-69
2023/04/05 04:32:53;;;;;;;6.17;3.83;;;;;;;;;;5040628;28;20455;-69
2023/04/05 04:35:41;;;;;;;9.57;3.77;;;;;;;;;;5046858;28;20451;-69
2023/04/05 04:38:07;;;;;;;5.47;4.27;;;;;;;;;;5048833;28;20575;-69
2023/04/05 04:40:46;;;;;;;6.03;3.43;;;;;;;;;;5057322;28;20671;-69
2023/04/05 04:43:25;;;;;;;6.40;3.80;;;;;;;;;;5046493;28;20687;-72
2023/04/05 04:46:13;;;;;;;6.40;4.37;;;;;;;;;;5047156;28;20471;-70
2023/04/05 04:48:57;;;;;;;5.87;4.33;;;;;;;;;;5008150;23;20506;-72
2023/04/05 04:51:32;;;;;;;3.90;3.17;;;;;;;;;;5002462;28;20470;-73
2023/04/05 04:53:58;;;;;;;9.40;3.77;;;;;;;;;;5007580;28;20474;-72
2023/04/05 04:56:25;;;;;;;6.63;4.03;;;;;;;;;;5005327;28;20533;-73
2023/04/05 04:58:53;;;;;;;6.97;3.53;;;;;;;;;;5000435;28;20483;-73
2023/04/05 05:01:21;;;;;;;6.03;4.20;;;;;;;;;;5005988;28;20458;-73
2023/04/05 05:03:47;;;;;;;6.17;4.17;;;;;;;;;;5002058;28;20544;-73
2023/04/05 05:06:20;;;;;;;6.00;4.27;;;;;;;;;;4986341;28;20459;-73
2023/04/05 05:08:47;;;;;;;7.33;4.40;;;;;;;;;;5002789;28;20510;-73
2023/04/05 05:11:14;;;;;;;6.17;4.20;;;;;;;;;;5006564;28;20205;-72
2023/04/05 05:13:40;;;;;;;6.80;4.10;;;;;;;;;;5001126;28;20489;-72
2023/04/05 05:16:08;;;;;;;6.37;3.80;;;;;;;;;;4994703;28;20266;-73
2023/04/05 05:18:35;;;;;;;6.23;3.87;;;;;;;;;;5003528;28;20250;-73
2023/04/05 05:21:01;;;;;;;4.83;3.77;;;;;;;;;;4999924;28;20207;-73
2023/04/05 05:23:29;;;;;;;9.30;4.63;;;;;;;;;;5001542;28;20213;-74
2023/04/05 05:25:57;;;;;;;4.83;3.77;;;;;;;;;;5008500;28;20200;-72
2023/04/05 05:28:24;;;;;;;6.60;3.57;;;;;;;;;;5003122;28;20228;-73
2023/04/05 05:30:51;;;;;;;7.63;4.43;;;;;;;;;;5001777;28;20196;-73
2023/04/05 05:33:18;;;;;;;6.13;4.23;;;;;;;;;;5000041;28;20205;-72
2023/04/05 05:35:47;;;;;;;6.13;4.70;;;;;;;;;;5003283;28;21188;-72
2023/04/05 05:38:13;;;;;;;8.37;4.37;;;;;;;;;;4967586;28;20694;-72
2023/04/05 05:40:41;;;;;;;7.97;4.07;;;;;;;;;;4998851;28;20208;-72
2023/04/05 05:43:09;;;;;;;7.70;4.20;;;;;;;;;;5002081;28;20313;-72
2023/04/05 05:45:35;;;;;;;6.97;4.00;;;;;;;;;;5003388;28;20650;-72
2023/04/05 05:48:01;;;;;;;9.07;4.20;;;;;;;;;;4996754;28;20697;-72
2023/04/05 05:50:31;;;;;;;6.90;4.97;;;;;;;;;;5001997;28;20212;-72
2023/04/05 05:52:57;;;;;;;7.67;3.93;;;;;;;;;;5005305;28;20598;-72
2023/04/05 05:55:24;;;;;;;7.90;3.93;;;;;;;;;;4979953;28;20217;-73
2023/04/05 05:57:52;;;;;;;5.90;3.77;;;;;;;;;;5000575;28;20232;-72
2023/04/05 06:00:19;;;;;;;6.30;4.10;;;;;;;;;;5003907;28;20255;-73
2023/04/05 06:02:45;;;;;;;8.40;4.40;;;;;;;;;;5004731;28;20527;-73
2023/04/05 06:05:36;;;;;;;7.63;4.10;;;;;;;;;;5005689;28;20684;-73
2023/04/05 06:08:03;;;;;;;7.43;4.50;;;;;;;;;;5011121;28;20224;-74
2023/04/05 06:10:29;;;;;;;7.87;3.87;;;;;;;;;;5007806;28;20288;-73
2023/04/05 06:12:57;;;;;;;4.37;3.70;;;;;;;;;;5012597;28;20220;-73
2023/04/05 06:15:23;;;;;;;7.20;4.30;;;;;;;;;;5008897;28;20231;-72
2023/04/05 06:17:49;;;;;;;7.47;3.67;;;;;;;;;;5008841;28;20230;-72
2023/04/05 06:20:15;;;;;;;5.43;3.47;;;;;;;;;;5011413;28;20237;-72
2023/04/05 06:22:43;;;;;;;6.23;3.80;;;;;;;;;;5009033;28;20700;-73
2023/04/05 06:25:11;;;;;;;5.57;3.90;;;;;;;;;;5014839;28;20203;-72
2023/04/05 06:27:37;;;;;;;6.77;4.10;;;;;;;;;;5005581;28;20209;-73
2023/04/05 06:30:06;;;;;;;4.70;3.80;;;;;;;;;;5005842;28;20196;-73
2023/04/05 06:32:32;;;;;;;6.53;3.50;;;;;;;;;;4991151;28;20538;-73
2023/04/05 06:34:58;;;;;;;6.03;4.00;;;;;;;;;;5008323;28;20220;-72
2023/04/05 06:37:24;;;;;;;4.37;3.20;;;;;;;;;;5008314;28;20220;-72
2023/04/05 06:39:51;;;;;;;4.63;2.97;;;;;;;;;;5012924;28;20196;-72
2023/04/05 06:42:17;;;;;;;6.63;3.70;;;;;;;;;;5006331;28;20199;-72
2023/04/05 06:44:51;;;;;;;5.60;3.80;;;;;;;;;;4988954;28;20702;-73
2023/04/05 06:47:18;;;;;;;5.67;3.20;;;;;;;;;;5013718;28;20228;-72
2023/04/05 06:49:45;;;;;;;4.00;3.17;;;;;;;;;;5012989;28;20196;-73
2023/04/05 06:52:11;;;;;;;4.77;3.30;;;;;;;;;;5007037;28;20279;-73
2023/04/05 06:54:38;;;;;;;5.87;3.00;;;;;;;;;;5011892;28;20228;-72
2023/04/05 06:57:04;;;;;;;4.03;2.80;;;;;;;;;;5007184;28;20205;-72
2023/04/05 06:59:30;;;;;;;4.43;3.07;;;;;;;;;;5009764;28;20234;-73
2023/04/05 07:01:56;;;;;;;5.33;3.43;;;;;;;;;;5011298;28;20189;-73
2023/04/05 07:04:25;;;;;;;5.07;2.50;;;;;;;;;;5008262;28;20208;-73
2023/04/05 07:06:52;;;;;;;4.73;2.53;;;;;;;;;;5013091;28;20206;-73
2023/04/05 07:09:19;;;;;;;4.33;3.13;;;;;;;;;;5006818;28;20209;-73
2023/04/05 07:11:45;;;;;;;6.77;2.97;;;;;;;;;;4999137;28;20207;-72
2023/04/05 07:14:11;;;;;;;4.47;2.67;;;;;;;;;;5010383;28;20231;-72
2023/04/05 07:16:38;;;;;;;3.83;2.90;;;;;;;;;;5007027;28;20201;-72
2023/04/05 07:19:05;;;;;;;6.23;2.90;;;;;;;;;;5009264;28;20236;-72
2023/04/05 07:21:32;;;;;;;5.00;3.20;;;;;;;;;;5010967;28;20211;-72
2023/04/05 07:24:00;;;;;;;5.43;2.70;;;;;;;;;;5010353;28;20208;-73
2023/04/05 07:26:27;;;;;;;4.80;2.53;;;;;;;;;;5002719;28;20279;-73
2023/04/05 07:28:54;;;;;;;4.47;2.73;;;;;;;;;;5006759;28;20266;-72
2023/04/05 07:31:20;;;;;;;4.07;2.60;;;;;;;;;;5012255;28;20604;-72
2023/04/05 07:33:47;;;;;;;5.20;2.23;;;;;;;;;;4999182;28;20575;-73
2023/04/05 07:36:13;;;;;;;5.33;2.60;;;;;;;;;;5005769;28;20263;-73
2023/04/05 07:38:40;;;;;;;6.37;2.73;;;;;;;;;;5010101;28;20225;-72
2023/04/05 07:41:06;;;;;;;7.07;2.70;;;;;;;;;;5010189;28;20219;-72
2023/04/05 07:43:33;;;;;;;3.27;2.23;;;;;;;;;;5009796;28;20277;-72
2023/04/05 07:46:02;;;;;;;3.47;2.40;;;;;;;;;;5007360;28;20875;-72
2023/04/05 07:48:29;;;;;;;3.73;2.43;;;;;;;;;;5004162;28;20754;-73
2023/04/05 07:50:55;;;;;;;5.40;2.30;;;;;;;;;;5003657;28;20224;-73
2023/04/05 07:53:21;;;;;;;5.53;2.10;;;;;;;;;;5013459;28;20209;-72
2023/04/05 07:55:49;;;;;;;3.47;2.00;;;;;;;;;;5009254;28;20224;-72
2023/04/05 07:58:16;;;;;;;5.97;2.33;;;;;;;;;;5006594;28;20712;-72
2023/04/05 08:00:42;;;;;;;3.83;2.10;;;;;;;;;;5001670;28;20205;-74
2023/04/05 08:03:08;;;;;;;2.67;1.93;;;;;;;;;;5005611;28;20208;-73
2023/04/05 08:05:35;;;;;;;3.93;2.20;;;;;;;;;;5003138;28;20207;-73
2023/04/05 08:08:09;;;;;;;3.17;2.23;;;;;;;;;;5011071;28;20212;-72
2023/04/05 08:10:38;;;;;;;3.90;1.97;;;;;;;;;;4983081;28;20204;-72
2023/04/05 08:13:07;;;;;;;2.93;1.80;;;;;;;;;;5004292;28;20587;-72
2023/04/05 08:15:33;;;;;;;2.60;1.90;;;;;;;;;;5004868;28;20228;-72
2023/04/05 08:17:59;;;;;;;4.17;2.20;;;;;;;;;;4994662;28;20272;-73
2023/04/05 08:20:26;;;;;;;5.73;2.00;;;;;;;;;;4998699;28;20204;-73
2023/04/05 08:22:52;;;;;;;3.40;2.13;;;;;;;;;;5009090;28;20207;-72
2023/04/05 08:25:18;;;;;;;2.30;1.70;;;;;;;;;;4976298;28;20674;-72
2023/04/05 08:27:44;;;;;;;5.03;1.97;;;;;;;;;;5007007;28;20221;-73
2023/04/05 08:30:12;;;;;;;2.30;1.70;;;;;;;;;;4995279;28;20657;-72
2023/04/05 08:32:39;;;;;;;4.07;2.20;;;;;;;;;;4999846;28;20196;-74
2023/04/05 08:35:06;;;;;;;1.63;1.50;;;;;;;;;;4994114;28;20701;-73
2023/04/05 08:37:33;;;;;;;4.27;2.00;;;;;;;;;;4996291;28;20225;-72
2023/04/05 08:39:59;;;;;;;2.80;1.83;;;;;;;;;;4989442;28;20289;-72
2023/04/05 08:42:28;;;;;;;2.40;1.63;;;;;;;;;;4987225;28;20215;-72
2023/04/05 08:44:57;;;;;;;3.23;1.87;;;;;;;;;;4996794;28;20574;-73
2023/04/05 08:47:25;;;;;;;1.60;1.23;;;;;;;;;;4998209;28;20717;-73
2023/04/05 08:49:51;;;;;;;2.87;1.80;;;;;;;;;;4985172;28;20236;-73
2023/04/05 08:52:18;;;;;;;2.90;1.50;;;;;;;;;;5002451;28;20212;-73
2023/04/05 08:54:44;;;;;;;2.53;1.63;;;;;;;;;;4996794;28;20681;-74
2023/04/05 08:57:11;;;;;;;2.27;1.70;;;;;;;;;;4996672;28;20214;-74
2023/04/05 08:59:37;;;;;;;3.27;1.80;;;;;;;;;;4990780;28;20221;-72
2023/04/05 09:02:06;;;;;;;4.37;1.77;;;;;;;;;;5006401;28;20204;-73
2023/04/05 09:04:38;;;;;;;2.83;1.87;;;;;;;;;;5002492;28;20304;-72
2023/04/05 09:07:06;;;;;;;4.50;1.93;;;;;;;;;;5000865;28;20570;-72
2023/04/05 09:09:33;;;;;;;3.07;1.83;;;;;;;;;;5001606;28;20555;-73
2023/04/05 09:12:00;;;;;;;4.07;2.17;;;;;;;;;;4999871;28;20565;-72
2023/04/05 09:14:26;;;;;;;2.53;1.80;;;;;;;;;;4989015;28;20753;-72
2023/04/05 09:16:53;;;;;;;3.53;2.27;;;;;;;;;;4998211;28;20228;-73
2023/04/05 09:19:19;;;;;;;3.43;2.40;;;;;;;;;;4999500;28;20196;-73
2023/04/05 09:21:59;;;;;;;4.90;2.57;;;;;;;;;;5002026;28;20700;-73
2023/04/05 09:24:38;;;;;;;4.50;2.27;;;;;;;;;;4999954;28;20247;-72
2023/04/05 09:27:05;;;;;;;3.90;2.57;;;;;;;;;;5001594;28;20611;-73
2023/04/05 09:29:32;;;;;;;4.07;2.37;;;;;;;;;;5000154;28;20294;-74
2023/04/05 09:32:02;;;;;;;5.27;2.70;;;;;;;;;;4979725;28;20205;-72
2023/04/05 09:34:29;;;;;;;4.17;2.40;;;;;;;;;;4993948;28;20209;-72
2023/04/05 09:36:56;;;;;;;4.63;2.63;;;;;;;;;;5000198;28;20628;-72
2023/04/05 09:39:27;;;;;;;5.70;2.70;;;;;;;;;;5003658;28;20204;-72
2023/04/05 09:42:04;;;;;;;5.60;3.10;;;;;;;;;;4989382;28;20216;-72
2023/04/05 09:44:47;;;;;;;3.93;2.47;;;;;;;;;;4986087;28;20200;-72
2023/04/05 09:47:15;;;;;;;2.90;2.50;;;;;;;;;;5004844;28;20216;-73
2023/04/05 09:49:41;;;;;;;3.83;2.60;;;;;;;;;;5003087;28;20648;-73
2023/04/05 09:52:17;;;;;;;4.77;2.70;;;;;;;;;;4995937;28;20198;-73
2023/04/05 09:55:10;;;;;;;4.33;2.57;;;;;;;;;;4999741;28;20223;-74
2023/04/05 09:57:37;;;;;;;6.03;3.17;;;;;;;;;;4999979;28;20222;-73
2023/04/05 10:00:04;;;;;;;4.27;2.90;;;;;;;;;;5002968;28;20634;-73
2023/04/05 10:02:40;;;;;;;3.17;2.20;;;;;;;;;;4995773;28;20492;-72
2023/04/05 10:05:10;;;;;;;3.43;2.43;;;;;;;;;;4987327;28;20211;-73
2023/04/05 10:07:37;;;;;;;3.77;2.77;;;;;;;;;;4996870;28;20782;-74
2023/04/05 10:10:04;;;;;;;3.60;2.47;;;;;;;;;;4999422;28;20430;-73
2023/04/05 10:12:32;;;;;;;3.73;2.33;;;;;;;;;;4997558;28;20267;-72
2023/04/05 10:14:59;;;;;;;4.50;2.53;;;;;;;;;;4994400;28;20591;-73
2023/04/05 10:17:28;;;;;;;3.97;2.53;;;;;;;;;;4994146;28;20380;-73
2023/04/05 10:20:02;;;;;;;4.67;2.43;;;;;;;;;;4995859;28;20219;-72
2023/04/05 10:22:32;;;;;;;2.60;2.30;;;;;;;;;;4997538;28;20258;-73
2023/04/05 10:25:03;;;;;;;3.63;2.40;;;;;;;;;;4998719;28;20204;-72
2023/04/05 10:27:31;;;;;;;3.03;2.40;;;;;;;;;;4999009;28;20222;-72
2023/04/05 10:30:03;;;;;;;4.17;2.50;;;;;;;;;;4996232;28;20248;-72
2023/04/05 10:32:30;;;;;;;5.20;2.67;;;;;;;;;;5003276;28;20558;-73
2023/04/05 10:34:58;;;;;;;4.27;2.60;;;;;;;;;;4987358;28;20297;-73
2023/04/05 10:37:30;;;;;;;3.87;2.23;;;;;;;;;;5000559;28;20217;-74
2023/04/05 10:39:58;;;;;;;4.27;3.27;;;;;;;;;;4997018;28;20201;-73
2023/04/05 10:42:26;;;;;;;5.50;3.37;;;;;;;;;;4999820;28;20189;-72
2023/04/05 10:44:58;;;;;;;4.47;3.03;;;;;;;;;;5002816;28;20201;-73
2023/04/05 10:47:27;;;;;;;2.70;2.20;;;;;;;;;;4999835;28;20236;-72
2023/04/05 10:49:56;;;;;;;5.50;2.37;;;;;;;;;;5003381;28;20207;-72
2023/04/05 10:52:22;;;;;;;5.37;2.40;;;;;;;;;;5011988;28;20208;-73
2023/04/05 10:54:49;;;;;;;3.87;2.60;;;;;;;;;;5007900;28;20206;-72
2023/04/05 10:57:16;;;;;;;4.67;2.70;;;;;;;;;;5012115;28;20224;-72
2023/04/05 10:59:43;;;;;;;4.50;3.00;;;;;;;;;;4988185;28;20206;-72
2023/04/05 11:02:10;;;;;;;4.47;2.70;;;;;;;;;;5005650;28;20212;-72
2023/04/05 11:04:39;;;;;;;3.80;2.70;;;;;;;;;;5007777;28;20204;-72
2023/04/05 11:07:12;;;;;;;3.70;2.40;;;;;;;;;;5006002;28;20197;-72
2023/04/05 11:09:39;;;;;;;2.60;2.37;;;;;;;;;;5004940;28;20205;-72
2023/04/05 11:12:06;;;;;;;3.77;2.40;;;;;;;;;;5016303;28;20703;-71
2023/04/05 11:14:35;;;;;;;6.03;2.93;;;;;;;;;;5015243;28;20204;-72
2023/04/05 11:17:01;;;;;;;5.03;2.90;;;;;;;;;;5010345;28;20204;-72
2023/04/05 11:19:46;;;;;;;3.87;2.60;;;;;;;;;;5001065;28;20204;-72
2023/04/05 11:22:24;;;;;;;5.67;3.17;;;;;;;;;;5011582;28;20208;-71
2023/04/05 11:24:51;;;;;;;5.00;3.00;;;;;;;;;;5002022;28;20215;-72
2023/04/05 11:27:24;;;;;;;6.87;3.67;;;;;;;;;;5012365;28;20211;-72
2023/04/05 11:29:53;;;;;;;3.40;2.63;;;;;;;;;;5012881;28;20200;-72
2023/04/05 11:32:19;;;;;;;3.53;2.40;;;;;;;;;;4990576;28;20557;-72
2023/04/05 11:34:58;;;;;;;3.90;2.77;;;;;;;;;;4994825;28;20523;-72
2023/04/05 11:37:51;;;;;;;5.30;3.33;;;;;;;;;;4999138;28;20252;-72
2023/04/05 11:40:24;;;;;;;3.13;2.53;;;;;;;;;;4999978;28;20586;-72
2023/04/05 11:42:57;;;;;;;3.83;2.43;;;;;;;;;;4999405;28;20208;-71
2023/04/05 11:45:24;;;;;;;4.97;3.87;;;;;;;;;;5008287;28;20592;-72
2023/04/05 11:47:50;;;;;;;3.73;2.60;;;;;;;;;;4978502;28;20233;-72
2023/04/05 11:50:17;;;;;;;3.40;2.37;;;;;;;;;;5008167;28;20197;-72
2023/04/05 11:52:44;;;;;;;4.10;2.30;;;;;;;;;;5006834;28;20205;-72
2023/04/05 11:55:11;;;;;;;3.03;2.33;;;;;;;;;;4997130;28;20712;-72
2023/04/05 11:57:37;;;;;;;2.73;2.40;;;;;;;;;;4999806;28;20283;-73
2023/04/05 12:00:04;;;;;;;3.30;1.83;;;;;;;;;;5005077;28;20224;-72
2023/04/05 12:02:42;;;;;;;3.47;2.37;;;;;;;;;;4999590;28;20251;-72
2023/04/05 12:05:09;;;;;;;6.63;2.43;;;;;;;;;;5004055;28;20207;-72
2023/04/05 12:07:35;;;;;;;5.27;2.67;;;;;;;;;;5002236;28;20246;-72
2023/04/05 12:10:06;;;;;;;2.90;1.97;;;;;;;;;;5008000;28;20628;-72
2023/04/05 12:12:34;;;;;;;5.63;2.40;;;;;;;;;;5010816;28;20212;-73
2023/04/05 12:15:00;;;;;;;3.53;2.43;;;;;;;;;;4998619;28;20236;-71
2023/04/05 12:17:43;;;;;;;9.17;3.87;;;;;;;;;;5000808;28;20229;-73
2023/04/05 12:20:10;;;;;;;4.00;2.37;;;;;;;;;;4998735;28;20271;-73
2023/04/05 12:22:38;;;;;;;4.60;3.10;;;;;;;;;;4999676;28;20345;-73
2023/04/05 12:25:06;;;;;;;5.40;2.90;;;;;;;;;;5005140;28;21099;-71
2023/04/05 12:27:32;;;;;;;2.10;1.80;;;;;;;;;;4986987;28;20234;-72
2023/04/05 12:30:05;;;;;;;3.67;1.60;;;;;;;;;;5003077;28;20219;-72
2023/04/05 12:32:35;;;;;;;3.37;1.47;;;;;;;;;;5001457;28;20212;-72
2023/04/05 12:35:01;;;;;;;3.57;1.50;;;;;;;;;;4999300;28;20210;-72
2023/04/05 12:37:27;;;;;;;2.53;1.50;;;;;;;;;;5008181;28;20261;-72
2023/04/05 12:39:54;;;;;;;2.97;2.07;;;;;;;;;;4998334;28;20209;-73
2023/04/05 12:42:21;;;;;;;3.87;2.67;;;;;;;;;;5003004;28;20208;-73
2023/04/05 12:45:01;;;;;;;2.57;1.67;;;;;;;;;;5006451;28;20205;-72
2023/04/05 12:47:28;;;;;;;1.73;1.07;;;;;;;;;;5006488;28;20239;-72
2023/04/05 12:49:54;;;;;;;1.70;1.50;;;;;;;;;;5001540;28;20219;-73
2023/04/05 12:52:21;;;;;;;3.40;1.30;;;;;;;;;;5006499;28;20209;-73
2023/04/05 12:54:53;;;;;;;2.10;1.60;;;;;;;;;;5002170;28;20198;-72
2023/04/05 12:57:29;;;;;;;1.73;1.60;;;;;;;;;;4999431;28;20220;-72
2023/04/05 12:59:55;;;;;;;1.97;1.30;;;;;;;;;;5004587;28;20682;-72
2023/04/05 13:02:21;;;;;;;3.67;1.60;;;;;;;;;;5001684;28;20199;-72
2023/04/05 13:04:48;;;;;;;2.80;1.50;;;;;;;;;;5007557;28;20204;-73
2023/04/05 13:07:14;;;;;;;3.33;1.60;;;;;;;;;;5006136;28;20216;-72
2023/04/05 13:09:40;;;;;;;2.40;1.87;;;;;;;;;;5007212;28;20192;-73
2023/04/05 13:12:06;;;;;;;2.23;1.67;;;;;;;;;;4987592;28;20239;-72
2023/04/05 13:14:34;;;;;;;3.33;1.60;;;;;;;;;;4997269;28;20209;-72
2023/04/05 13:17:00;;;;;;;3.13;1.77;;;;;;;;;;4991837;28;20237;-72
2023/04/05 13:19:26;;;;;;;2.40;1.60;;;;;;;;;;4992109;28;20279;-73
2023/04/05 13:21:53;;;;;;;5.37;1.80;;;;;;;;;;4990291;28;20663;-71
2023/04/05 13:24:19;;;;;;;2.27;1.70;;;;;;;;;;4996230;28;20210;-73
2023/04/05 13:26:45;;;;;;;3.07;1.47;;;;;;;;;;4992914;28;20199;-72
2023/04/05 13:29:11;;;;;;;2.17;1.37;;;;;;;;;;4993633;28;20598;-71
2023/04/05 13:31:40;;;;;;;1.53;1.37;;;;;;;;;;4996281;28;20620;-72
2023/04/05 13:34:07;;;;;;;2.27;1.80;;;;;;;;;;4991871;28;20602;-73
2023/04/05 13:36:33;;;;;;;2.47;1.57;;;;;;;;;;4995215;28;20213;-72
2023/04/05 13:39:00;;;;;;;3.90;1.50;;;;;;;;;;4991993;28;20225;-72
2023/04/05 13:41:26;;;;;;;2.40;1.40;;;;;;;;;;4995787;28;20219;-73
2023/04/05 13:43:53;;;;;;;2.27;1.40;;;;;;;;;;4994773;28;20208;-72
2023/04/05 13:46:19;;;;;;;2.50;1.30;;;;;;;;;;4992283;28;20211;-73
2023/04/05 13:48:47;;;;;;;4.03;2.00;;;;;;;;;;4993393;28;20228;-72
2023/04/05 13:51:13;;;;;;;2.30;1.57;;;;;;;;;;4993172;28;20732;-72
2023/04/05 13:53:39;;;;;;;2.57;1.50;;;;;;;;;;4994585;28;20216;-73
2023/04/05 13:56:06;;;;;;;2.43;1.37;;;;;;;;;;4997974;28;20251;-72
2023/04/05 13:58:32;;;;;;;2.37;1.80;;;;;;;;;;4996139;28;20614;-72
2023/04/05 14:00:58;;;;;;;4.13;1.93;;;;;;;;;;4995048;28;20558;-72
2023/04/05 14:03:24;;;;;;;4.27;2.53;;;;;;;;;;4985913;28;20681;-72
2023/04/05 14:05:52;;;;;;;5.20;2.97;;;;;;;;;;4996539;28;20505;-72
2023/04/05 14:08:18;;;;;;;5.13;2.63;;;;;;;;;;4998757;28;20335;-72
2023/04/05 14:10:44;;;;;;;4.70;2.20;;;;;;;;;;4994640;28;20731;-72
2023/04/05 14:13:12;;;;;;;4.73;2.40;;;;;;;;;;4996774;28;20572;-72
2023/04/05 14:15:38;;;;;;;3.10;2.30;;;;;;;;;;4993586;28;20219;-72
2023/04/05 14:18:05;;;;;;;2.53;1.80;;;;;;;;;;4991260;28;20225;-72
2023/04/05 14:20:31;;;;;;;2.53;2.00;;;;;;;;;;4996238;28;20559;-72
2023/04/05 14:23:00;;;;;;;4.23;2.43;;;;;;;;;;4995577;28;20208;-72
2023/04/05 14:25:26;;;;;;;4.30;2.43;;;;;;;;;;4996576;28;20200;-72
2023/04/05 14:27:52;;;;;;;4.07;2.40;;;;;;;;;;4994373;28;20340;-71
2023/04/05 14:30:19;;;;;;;5.20;2.37;;;;;;;;;;4997711;28;20212;-71
2023/04/05 14:32:45;;;;;;;4.33;1.77;;;;;;;;;;4986312;28;20213;-71
2023/04/05 14:35:12;;;;;;;3.30;1.97;;;;;;;;;;4991450;28;20240;-71
2023/04/05 14:37:38;;;;;;;3.10;2.33;;;;;;;;;;5001929;28;20225;-71
2023/04/05 14:40:06;;;;;;;3.87;2.30;;;;;;;;;;4999815;28;20219;-72
2023/04/05 14:42:36;;;;;;;2.40;1.90;;;;;;;;;;4997112;28;20317;-71
2023/04/05 14:45:02;;;;;;;3.37;2.20;;;;;;;;;;5002108;28;20464;-71
2023/04/05 14:47:28;;;;;;;5.03;2.30;;;;;;;;;;4994928;28;20326;-72
2023/04/05 14:49:55;;;;;;;2.40;2.20;;;;;;;;;;4988363;28;20208;-72
2023/04/05 14:52:21;;;;;;;3.20;1.93;;;;;;;;;;4983803;28;20211;-72